createdAt,value
2018-01-06T15:54:10.287Z,8.30
2018-01-06T15:56:37.806Z,8.40
2018-01-06T15:59:05.295Z,8.40
2018-01-06T16:01:33.564Z,8.40
2018-01-06T16:04:01.836Z,8.50
2018-01-06T16:06:30.098Z,8.50
2018-01-06T16:08:57.632Z,8.40
2018-01-06T16:11:25.166Z,8.50
2018-01-06T16:13:52.702Z,8.50
2018-01-06T16:16:20.969Z,8.50
2018-01-06T16:18:49.240Z,8.40
2018-01-06T16:21:17.530Z,8.40
2018-01-06T16:23:45.031Z,8.40
2018-01-06T16:26:12.544Z,8.40
2018-01-06T16:28:40.818Z,8.30
2018-01-06T16:31:09.076Z,8.30
2018-01-06T16:33:36.592Z,8.30
2018-01-06T16:36:04.095Z,8.30
2018-01-06T16:38:31.613Z,8.20
2018-01-06T16:40:59.112Z,8.20
2018-01-06T16:43:26.593Z,8.30
2018-01-06T16:45:54.880Z,8.20
2018-01-06T16:48:22.402Z,8.20
2018-01-06T16:50:49.899Z,8.20
2018-01-06T16:53:18.196Z,8.20
2018-01-06T16:55:45.709Z,8.10
2018-01-06T16:58:13.254Z,8.20
2018-01-06T17:00:40.744Z,8.10
2018-01-06T17:03:09.004Z,8.20
2018-01-06T17:05:36.509Z,8.20
2018-01-06T17:08:04.012Z,8.30
2018-01-06T17:10:31.533Z,8.20
2018-01-06T17:12:59.048Z,8.20
2018-01-06T17:15:27.319Z,8.30
2018-01-06T17:17:54.869Z,8.30
2018-01-06T17:20:22.368Z,8.30
2018-01-06T17:22:49.901Z,8.30
2018-01-06T17:25:18.163Z,8.30
2018-01-06T17:27:45.670Z,8.30
2018-01-06T17:30:13.195Z,8.40
2018-01-06T17:32:41.491Z,8.30
2018-01-06T17:35:09.798Z,8.30
2018-01-06T17:37:37.325Z,8.30
2018-01-06T17:40:05.594Z,8.20
2018-01-06T17:42:33.866Z,8.20
2018-01-06T17:45:02.123Z,8.20
2018-01-06T17:47:29.646Z,8.20
2018-01-06T17:49:57.139Z,8.30
2018-01-06T17:52:24.626Z,8.30
2018-01-06T17:54:52.928Z,8.30
2018-01-06T17:57:20.432Z,8.30
2018-01-06T17:59:47.947Z,8.40
2018-01-06T18:02:15.444Z,8.40
2018-01-06T18:04:42.963Z,8.50
2018-01-06T18:07:10.473Z,8.50
2018-01-06T18:09:37.974Z,8.40
2018-01-06T18:12:05.626Z,8.40
2018-01-06T18:14:33.881Z,8.40
2018-01-06T18:17:01.383Z,8.40
2018-01-06T18:19:28.898Z,8.40
2018-01-06T18:21:56.397Z,8.40
2018-01-06T18:24:23.929Z,8.40
2018-01-06T18:26:52.190Z,8.40
2018-01-06T18:29:19.678Z,8.40
2018-01-06T18:31:47.186Z,8.40
2018-01-06T18:34:14.681Z,8.40
2018-01-06T18:36:42.958Z,8.30
2018-01-06T18:39:10.462Z,8.30
2018-01-06T18:41:37.981Z,8.30
2018-01-06T18:44:06.254Z,8.30
2018-01-06T18:46:34.514Z,8.30
2018-01-06T18:49:02.806Z,8.30
2018-01-06T18:51:31.069Z,8.20
2018-01-06T18:53:58.553Z,8.30
2018-01-06T18:56:26.064Z,8.20
2018-01-06T18:58:53.562Z,8.20
2018-01-06T19:01:21.840Z,8.10
2018-01-06T19:03:50.098Z,8.10
2018-01-06T19:06:17.597Z,8.10
2018-01-06T19:08:45.098Z,8.10
2018-01-06T19:11:12.599Z,8.10
2018-01-06T19:13:40.105Z,8.10
2018-01-06T19:16:07.598Z,8.00
2018-01-06T19:18:35.877Z,8.00
2018-01-06T19:21:04.150Z,8.00
2018-01-06T19:23:32.406Z,8.00
2018-01-06T19:25:59.929Z,8.00
2018-01-06T19:28:27.492Z,8.10
2018-01-06T19:30:55.044Z,8.20
2018-01-06T19:33:22.550Z,8.20
2018-01-06T19:35:50.059Z,8.30
2018-01-06T19:38:17.570Z,8.30
2018-01-06T19:40:45.076Z,8.30
2018-01-06T19:43:12.578Z,8.30
2018-01-06T19:45:40.096Z,8.20
2018-01-06T19:48:07.632Z,8.10
2018-01-06T19:50:35.937Z,8.10
2018-01-06T19:53:03.434Z,8.10
2018-01-06T19:55:30.933Z,8.10
2018-01-06T19:57:58.442Z,8.00
2018-01-06T20:00:25.934Z,8.00
2018-01-06T20:02:54.229Z,7.90
2018-01-06T20:05:21.722Z,7.90
2018-01-06T20:07:49.222Z,7.90
2018-01-06T20:10:17.500Z,7.80
2018-01-06T20:12:45.799Z,7.90
2018-01-06T20:15:13.322Z,7.90
2018-01-06T20:17:40.836Z,7.90
2018-01-06T20:20:08.325Z,7.80
2018-01-06T20:22:35.837Z,7.80
2018-01-06T20:25:03.334Z,7.70
2018-01-06T20:27:30.865Z,7.70
2018-01-06T20:29:58.357Z,7.70
2018-01-06T20:32:25.854Z,7.80
2018-01-06T20:34:54.126Z,7.60
2018-01-06T20:37:22.390Z,7.70
2018-01-06T20:39:49.998Z,7.60
2018-01-06T20:42:17.537Z,7.60
2018-01-06T20:44:45.805Z,7.70
2018-01-06T20:47:14.126Z,7.70
2018-01-06T20:49:41.741Z,7.70
2018-01-06T20:52:09.323Z,7.70
2018-01-06T20:54:36.835Z,7.70
2018-01-06T20:57:04.333Z,7.70
2018-01-06T20:59:32.613Z,7.70
2018-01-06T21:02:00.112Z,7.70
2018-01-06T21:04:27.639Z,7.60
2018-01-06T21:06:55.138Z,7.60
2018-01-06T21:09:22.767Z,7.60
2018-01-06T21:11:50.279Z,7.70
2018-01-06T21:14:19.274Z,7.70
2018-01-06T21:16:46.803Z,7.70
2018-01-06T21:19:14.299Z,7.70
2018-01-06T21:21:42.558Z,7.70
2018-01-06T21:24:10.843Z,7.70
2018-01-06T21:26:38.341Z,7.70
2018-01-06T21:29:05.861Z,7.70
2018-01-06T21:31:33.353Z,7.70
2018-01-06T21:34:00.845Z,7.70
2018-01-06T21:36:28.390Z,7.70
2018-01-06T21:38:55.878Z,7.70
2018-01-06T21:41:23.386Z,7.70
2018-01-06T21:43:50.873Z,7.70
2018-01-06T21:46:18.365Z,7.70
2018-01-06T21:48:45.898Z,7.70
2018-01-06T21:51:13.387Z,7.70
2018-01-06T21:53:40.955Z,7.70
2018-01-06T21:56:08.420Z,7.70
2018-01-06T21:58:36.693Z,7.70
2018-01-06T22:01:04.966Z,7.70
2018-01-06T22:03:32.474Z,7.70
2018-01-06T22:05:59.989Z,7.70
2018-01-06T22:08:28.241Z,7.70
2018-01-06T22:10:55.867Z,7.70
2018-01-06T22:13:23.389Z,7.70
2018-01-06T22:15:51.651Z,7.70
2018-01-06T22:18:19.172Z,7.60
2018-01-06T22:20:46.667Z,7.60
2018-01-06T22:23:14.163Z,7.60
2018-01-06T22:25:41.700Z,7.60
2018-01-06T22:28:09.970Z,7.70
2018-01-06T22:30:38.264Z,7.60
2018-01-06T22:33:05.786Z,7.60
2018-01-06T22:35:33.285Z,7.60
2018-01-06T22:38:01.557Z,7.60
2018-01-06T22:40:29.810Z,7.60
2018-01-06T22:42:58.085Z,7.60
2018-01-06T22:45:25.698Z,7.60
2018-01-06T22:47:53.225Z,7.60
2018-01-06T22:50:21.497Z,7.50
2018-01-06T22:52:49.763Z,7.50
2018-01-06T22:55:17.281Z,7.50
2018-01-06T22:57:44.769Z,7.60
2018-01-06T23:00:12.642Z,7.50
2018-01-06T23:02:41.653Z,7.50
2018-01-06T23:05:09.143Z,7.50
2018-01-06T23:07:37.513Z,7.50
2018-01-06T23:10:05.006Z,7.50
2018-01-06T23:12:32.500Z,7.50
2018-01-06T23:15:00.004Z,7.50
2018-01-06T23:17:27.493Z,7.50
2018-01-06T23:19:55.006Z,7.40
2018-01-06T23:22:22.494Z,7.40
2018-01-06T23:24:49.996Z,7.40
2018-01-06T23:27:17.505Z,7.40
2018-01-06T23:29:44.997Z,7.40
2018-01-06T23:32:12.515Z,7.40
2018-01-06T23:34:40.017Z,7.40
2018-01-06T23:37:07.514Z,7.40
2018-01-06T23:39:35.026Z,7.40
2018-01-06T23:42:02.517Z,7.30
2018-01-06T23:44:30.801Z,7.40
2018-01-06T23:46:59.062Z,7.30
2018-01-06T23:49:27.324Z,7.30
2018-01-06T23:51:54.836Z,7.30
2018-01-06T23:54:22.337Z,7.30
2018-01-06T23:56:49.850Z,7.30
2018-01-06T23:59:17.358Z,7.30
